Terminal Aerodrome Forecast
Issued by NWS

Home | Current Version | Previous Version | Graphics & Text | Print | Product List | Glossary On
Versions: 1 2 3 4 5 6 7 8 9 10 11 12 13 14 15 16 17 18 19 20 21 22 23 24 25 26 27 28 29 30 31 32 33 34 35 36
000
FTUS43 KGRB 291100
TAFRHI
TAF
KRHI 291139Z 2912/3012 01009KT P6SM SCT005 OVC009
      TEMPO 2912/2915 2SM -SHRA BR BKN005
     FM291500 01008G15KT P6SM SCT008 OVC012
      TEMPO 2915/2918 3SM -SHRA BR OVC008
     FM292200 02007KT P6SM OVC016
     FM300700 04006KT P6SM BKN014=

USA.gov is the U.S. government's official web portal to all federal, state and local government web resources and services.